createdAt,value
2022-09-20T00:01:23.468Z,10.59
2022-09-20T00:03:53.962Z,10.67
2022-09-20T00:06:24.768Z,10.64
2022-09-20T00:08:52.459Z,10.57
2022-09-20T00:11:28.791Z,10.54
2022-09-20T00:13:58.801Z,10.48
2022-09-20T00:16:32.382Z,10.57
2022-09-20T00:19:04.291Z,10.50
2022-09-20T00:21:34.427Z,10.61
2022-09-20T00:24:02.068Z,10.55
2022-09-20T00:26:29.770Z,10.61
2022-09-20T00:28:58.838Z,10.52
2022-09-20T00:31:26.176Z,10.64
2022-09-20T00:34:16.461Z,10.70
2022-09-20T00:36:46.600Z,10.70
2022-09-20T00:39:16.116Z,10.69
2022-09-20T00:41:43.432Z,10.70
2022-09-20T00:44:44.491Z,10.75
2022-09-20T00:47:27.054Z,10.60
2022-09-20T00:50:00.250Z,10.67
2022-09-20T00:52:29.332Z,10.76
2022-09-20T00:54:57.375Z,10.71
2022-09-20T00:57:24.745Z,10.74
2022-09-20T00:59:53.963Z,10.74
2022-09-20T01:02:26.926Z,10.55
2022-09-20T01:04:57.804Z,10.75
2022-09-20T01:07:26.106Z,10.75
2022-09-20T01:09:53.450Z,10.72
2022-09-20T01:12:30.356Z,10.65
2022-09-20T01:14:59.462Z,10.73
2022-09-20T01:17:30.271Z,10.55
2022-09-20T01:20:13.542Z,10.60
2022-09-20T01:23:11.263Z,10.73
2022-09-20T01:25:47.266Z,10.72
2022-09-20T01:28:15.413Z,10.69
2022-09-20T01:30:48.556Z,10.61
2022-09-20T01:33:43.338Z,10.55
2022-09-20T01:36:17.083Z,10.50
2022-09-20T01:39:32.834Z,10.43
2022-09-20T01:42:05.307Z,10.55
2022-09-20T01:44:41.204Z,10.57
2022-09-20T01:47:32.699Z,10.54
2022-09-20T01:50:27.551Z,10.55
2022-09-20T01:53:09.886Z,10.55
2022-09-20T01:56:11.679Z,10.50
2022-09-20T01:59:07.176Z,10.55
2022-09-20T02:01:53.147Z,10.54
2022-09-20T02:04:38.594Z,10.55
2022-09-20T02:07:38.424Z,10.55
2022-09-20T02:10:14.500Z,10.60
2022-09-20T02:12:55.123Z,10.64
2022-09-20T02:15:42.129Z,10.65
2022-09-20T02:18:34.204Z,10.66
2022-09-20T02:21:48.250Z,10.62
2022-09-20T02:24:29.870Z,10.65
2022-09-20T02:27:17.716Z,10.69
2022-09-20T02:29:51.846Z,10.73
2022-09-20T02:32:18.993Z,10.74
2022-09-20T02:35:05.705Z,10.76
2022-09-20T02:37:38.937Z,10.77
2022-09-20T02:40:47.499Z,10.78
2022-09-20T02:43:36.380Z,10.68
2022-09-20T02:46:16.899Z,10.65
2022-09-20T02:48:54.027Z,10.68
2022-09-20T02:51:34.394Z,10.70
2022-09-20T02:54:29.218Z,10.76
2022-09-20T02:57:29.375Z,10.77
2022-09-20T03:00:06.908Z,10.74
2022-09-20T03:02:51.499Z,10.75
2022-09-20T03:05:32.537Z,10.76
2022-09-20T03:08:20.859Z,10.74
2022-09-20T03:11:02.413Z,10.74
2022-09-20T03:14:06.699Z,10.75
2022-09-20T03:17:02.570Z,10.73
2022-09-20T03:19:36.049Z,10.73
2022-09-20T03:22:27.322Z,10.75
2022-09-20T03:25:03.347Z,10.78
2022-09-20T03:27:37.152Z,10.74
2022-09-20T03:30:15.332Z,10.78
2022-09-20T03:32:51.032Z,10.59
2022-09-20T03:35:39.339Z,10.61
2022-09-20T03:38:22.706Z,10.80
2022-09-20T03:41:09.956Z,10.81
2022-09-20T03:43:55.769Z,10.78
2022-09-20T03:46:45.399Z,10.85
2022-09-20T03:49:37.551Z,10.86
2022-09-20T03:52:40.105Z,10.88
2022-09-20T03:55:16.253Z,10.88
2022-09-20T03:58:22.220Z,10.84
2022-09-20T04:01:31.438Z,10.90
2022-09-20T04:04:30.896Z,10.90
2022-09-20T04:07:12.527Z,10.93
2022-09-20T04:10:00.817Z,10.91
2022-09-20T04:12:56.255Z,10.94
2022-09-20T04:15:36.357Z,10.90
2022-09-20T04:18:12.443Z,10.95
2022-09-20T04:20:48.674Z,10.95
2022-09-20T04:23:33.914Z,10.98
2022-09-20T04:26:03.592Z,10.95
2022-09-20T04:28:43.428Z,11.00
2022-09-20T04:31:41.492Z,10.99
2022-09-20T04:34:45.111Z,11.04
2022-09-20T04:37:33.465Z,11.02
2022-09-20T04:40:26.258Z,11.02
2022-09-20T04:43:24.596Z,11.02
2022-09-20T04:46:03.648Z,10.99
2022-09-20T04:49:01.285Z,11.02
2022-09-20T04:52:13.202Z,11.00
2022-09-20T04:54:59.178Z,11.06
2022-09-20T04:58:00.743Z,11.07
2022-09-20T05:00:51.981Z,11.06
2022-09-20T05:03:38.133Z,11.10
2022-09-20T05:06:25.521Z,10.95
2022-09-20T05:09:20.454Z,11.11
2022-09-20T05:12:36.217Z,11.15
2022-09-20T05:15:23.648Z,11.28
2022-09-20T05:18:42.307Z,11.42
2022-09-20T05:21:33.564Z,11.57
2022-09-20T05:24:27.646Z,11.64
2022-09-20T05:27:19.705Z,11.83
2022-09-20T05:30:28.767Z,11.88
2022-09-20T05:33:13.028Z,11.83
2022-09-20T05:35:49.206Z,11.97
2022-09-20T05:38:46.687Z,12.06
2022-09-20T05:41:41.239Z,12.18
2022-09-20T05:44:16.199Z,12.22
2022-09-20T05:47:28.305Z,12.31
2022-09-20T05:50:01.239Z,12.32
2022-09-20T05:52:54.913Z,12.40
2022-09-20T05:55:36.883Z,12.43
2022-09-20T05:58:22.078Z,12.41
2022-09-20T06:01:04.516Z,12.36
2022-09-20T06:03:44.288Z,12.28
2022-09-20T06:06:21.797Z,12.21
2022-09-20T06:09:07.177Z,12.12
2022-09-20T06:12:03.732Z,12.05
2022-09-20T06:14:50.910Z,11.96
2022-09-20T06:17:48.643Z,11.98
2022-09-20T06:20:41.716Z,12.05
2022-09-20T06:23:10.255Z,12.20
2022-09-20T06:25:44.962Z,12.38
2022-09-20T06:28:40.595Z,12.48
2022-09-20T06:31:09.245Z,12.59
2022-09-20T06:33:51.213Z,12.72
2022-09-20T06:36:49.889Z,12.90
2022-09-20T06:40:06.779Z,13.02
2022-09-20T06:42:34.268Z,13.00
2022-09-20T06:45:01.418Z,13.00
2022-09-20T06:47:30.692Z,12.91
2022-09-20T06:49:59.337Z,12.94
2022-09-20T06:52:26.681Z,13.02
2022-09-20T06:54:56.364Z,13.08
2022-09-20T06:57:38.147Z,13.06
2022-09-20T07:00:07.074Z,13.23
2022-09-20T07:02:34.590Z,13.25
2022-09-20T07:05:01.722Z,13.36
2022-09-20T07:07:30.456Z,13.49
2022-09-20T07:09:58.662Z,13.62
2022-09-20T07:12:25.767Z,13.70
2022-09-20T07:14:52.910Z,13.83
2022-09-20T07:17:19.914Z,13.95
2022-09-20T07:19:49.999Z,14.04
2022-09-20T07:22:17.164Z,14.04
2022-09-20T07:24:45.080Z,13.95
2022-09-20T07:27:12.873Z,13.99
2022-09-20T07:29:41.264Z,14.01
2022-09-20T07:32:08.651Z,14.08
2022-09-20T07:34:35.630Z,14.16
2022-09-20T07:37:03.433Z,14.14
2022-09-20T07:39:31.064Z,14.16
2022-09-20T07:42:02.397Z,14.15
2022-09-20T07:44:30.040Z,14.18
2022-09-20T07:47:02.274Z,14.20
2022-09-20T07:49:30.445Z,14.24
2022-09-20T07:51:59.443Z,14.18
2022-09-20T07:54:27.740Z,14.26
2022-09-20T07:56:54.861Z,14.23
2022-09-20T07:59:21.939Z,14.36
2022-09-20T08:01:49.074Z,14.52
2022-09-20T08:04:16.236Z,14.70
2022-09-20T08:06:46.757Z,14.97
2022-09-20T08:09:14.348Z,15.08
2022-09-20T08:11:43.629Z,15.07
2022-09-20T08:14:15.736Z,15.02
2022-09-20T08:16:45.771Z,14.99
2022-09-20T08:19:23.329Z,14.92
2022-09-20T08:21:53.429Z,14.93
2022-09-20T08:24:20.613Z,14.92
2022-09-20T08:26:48.645Z,14.91
2022-09-20T08:29:15.904Z,14.98
2022-09-20T08:31:43.594Z,15.10
2022-09-20T08:34:15.064Z,15.21
2022-09-20T08:36:47.522Z,15.33
2022-09-20T08:42:33.340Z,15.29
2022-09-20T08:45:05.493Z,15.07
2022-09-20T08:47:45.455Z,14.87
2022-09-20T08:50:18.068Z,14.71
2022-09-20T08:52:49.382Z,14.64
2022-09-20T08:55:18.078Z,14.61
2022-09-20T08:57:50.376Z,14.66
2022-09-20T09:00:21.313Z,14.68
2022-09-20T09:02:51.989Z,14.74
2022-09-20T09:05:39.624Z,14.77
2022-09-20T09:08:16.677Z,14.66
2022-09-20T09:10:48.278Z,14.66
2022-09-20T09:13:22.971Z,14.74
2022-09-20T09:15:57.055Z,14.77
2022-09-20T09:18:32.535Z,14.77
2022-09-20T09:21:04.354Z,14.81
2022-09-20T09:23:41.587Z,14.82
2022-09-20T09:26:18.518Z,14.79
2022-09-20T09:28:45.460Z,14.75
2022-09-20T09:31:30.370Z,14.85
2022-09-20T09:33:57.495Z,14.98
2022-09-20T09:36:26.285Z,15.21
2022-09-20T09:39:41.219Z,15.46
2022-09-20T09:42:29.012Z,15.48
2022-09-20T09:45:12.212Z,15.42
2022-09-20T09:47:39.322Z,15.49
2022-09-20T09:50:09.912Z,15.63
2022-09-20T09:52:37.163Z,15.88
2022-09-20T09:55:05.967Z,16.17
2022-09-20T09:58:06.584Z,16.30
2022-09-20T10:00:35.927Z,16.30
2022-09-20T10:03:21.060Z,16.33
2022-09-20T10:06:31.575Z,16.27
2022-09-20T10:09:30.677Z,16.11
2022-09-20T10:12:26.447Z,15.98
2022-09-20T10:15:13.448Z,15.84
2022-09-20T10:18:08.718Z,15.84
2022-09-20T10:21:12.514Z,15.89
2022-09-20T10:24:02.428Z,15.79
2022-09-20T10:26:49.077Z,15.63
2022-09-20T10:29:59.352Z,15.53
2022-09-20T10:32:27.274Z,15.42
2022-09-20T10:35:22.656Z,15.48
2022-09-20T10:37:58.669Z,15.50
2022-09-20T10:40:52.298Z,15.47
2022-09-20T10:43:35.993Z,15.64
2022-09-20T10:46:31.437Z,15.71
2022-09-20T10:49:16.848Z,15.75
2022-09-20T10:52:17.114Z,15.72
2022-09-20T10:55:09.089Z,15.64
2022-09-20T10:58:13.925Z,15.61
2022-09-20T11:00:50.906Z,15.61
2022-09-20T11:03:33.209Z,15.57
2022-09-20T11:06:17.727Z,15.78
2022-09-20T11:08:51.755Z,15.68
2022-09-20T11:11:37.811Z,15.82
2022-09-20T11:14:23.098Z,15.86
2022-09-20T11:17:26.567Z,15.76
2022-09-20T11:20:07.266Z,15.77
2022-09-20T11:22:52.790Z,15.67
2022-09-20T11:25:29.596Z,15.53
2022-09-20T11:28:08.431Z,15.35
2022-09-20T11:30:41.983Z,15.31
2022-09-20T11:33:18.696Z,15.34
2022-09-20T11:35:55.515Z,15.41
2022-09-20T11:38:42.083Z,15.50
2022-09-20T11:41:13.625Z,15.51
2022-09-20T11:43:45.502Z,15.47
2022-09-20T11:46:19.495Z,15.46
2022-09-20T11:48:53.409Z,15.50
2022-09-20T11:51:52.275Z,15.52
2022-09-20T11:55:13.938Z,15.70
2022-09-20T11:57:41.037Z,15.90
2022-09-20T12:00:10.310Z,15.90
2022-09-20T12:02:54.271Z,15.86
2022-09-20T12:05:33.785Z,15.88
2022-09-20T12:08:04.357Z,15.70
2022-09-20T12:10:35.372Z,15.94
2022-09-20T12:13:23.612Z,16.16
2022-09-20T12:16:15.050Z,16.24
2022-09-20T12:19:02.803Z,16.30
2022-09-20T12:21:29.996Z,16.34
2022-09-20T12:23:56.888Z,16.43
2022-09-20T12:26:26.622Z,16.47
2022-09-20T12:28:58.919Z,16.47
2022-09-20T12:31:26.460Z,17.09
2022-09-20T12:34:11.913Z,17.78
2022-09-20T12:36:44.827Z,18.46
2022-09-20T12:39:11.741Z,18.69
2022-09-20T12:42:06.143Z,18.76
2022-09-20T12:44:51.381Z,18.77
2022-09-20T12:47:53.207Z,19.02
2022-09-20T12:50:41.718Z,18.80
2022-09-20T12:53:16.841Z,18.37
2022-09-20T12:55:51.679Z,17.91
2022-09-20T12:58:25.109Z,17.66
2022-09-20T13:01:03.863Z,17.79
2022-09-20T13:03:34.946Z,18.10
2022-09-20T13:06:23.126Z,17.98
2022-09-20T13:09:02.317Z,17.66
2022-09-20T13:11:57.116Z,17.25
2022-09-20T13:14:28.049Z,16.84
2022-09-20T13:17:13.885Z,16.44
2022-09-20T13:19:50.008Z,16.44
2022-09-20T13:22:42.164Z,16.75
2022-09-20T13:25:18.426Z,16.71
2022-09-20T13:28:03.621Z,16.62
2022-09-20T13:30:33.761Z,16.46
2022-09-20T13:33:24.535Z,16.21
2022-09-20T13:35:58.858Z,15.96
2022-09-20T13:38:30.863Z,15.84
2022-09-20T13:41:09.264Z,16.32
2022-09-20T13:43:44.642Z,17.69
2022-09-20T13:46:17.224Z,18.72
2022-09-20T13:48:48.590Z,19.27
2022-09-20T13:54:33.572Z,18.85
2022-09-20T13:57:12.119Z,18.58
2022-09-20T13:59:45.307Z,18.38
2022-09-20T14:02:24.957Z,18.21
2022-09-20T14:04:55.701Z,18.01
2022-09-20T14:07:28.354Z,17.58
2022-09-20T14:09:56.822Z,17.03
2022-09-20T14:12:25.045Z,16.68
2022-09-20T14:14:53.211Z,16.35
2022-09-20T14:17:24.507Z,16.04
2022-09-20T14:19:54.734Z,15.78
2022-09-20T14:22:26.401Z,15.59
2022-09-20T14:25:17.543Z,15.40
2022-09-20T14:27:44.750Z,15.21
2022-09-20T14:30:31.668Z,14.94
2022-09-20T14:32:59.919Z,14.93
2022-09-20T14:35:33.005Z,14.81
2022-09-20T14:38:24.469Z,14.62
2022-09-20T14:40:58.171Z,14.52
2022-09-20T14:43:35.323Z,14.43
2022-09-20T14:46:16.134Z,14.33
2022-09-20T14:48:45.590Z,14.25
2022-09-20T14:51:14.437Z,14.26
2022-09-20T14:53:47.124Z,14.17
2022-09-20T14:56:27.714Z,14.24
2022-09-20T14:59:28.783Z,14.25
2022-09-20T15:02:03.665Z,14.23
2022-09-20T15:04:33.238Z,14.11
2022-09-20T15:07:02.999Z,14.11
2022-09-20T15:09:30.262Z,14.06
2022-09-20T15:12:21.496Z,14.03
